Time;durP1;ratioP1;P1;durP2;ratioP2;P2;SDS_P1;SDS_P2;PMS_P1;PMS_P2;Temp;Humidity;BMP_temperature;BMP_pressure;BME280_temperature;BME280_humidity;BME280_pressure;Samples;Min_cycle;Max_cycle;Signal;HPM_P1;HPM_P2
2021/06/05 00:00:52;;;;;;;12.02;8.70;;;332.80;2329.60;;;;;;5009619;28;20022;-74
2021/06/05 00:03:19;;;;;;;11.98;8.45;;;332.80;2329.60;;;;;;5009889;28;20030;-73
2021/06/05 00:05:50;;;;;;;13.85;9.25;;;332.80;2329.60;;;;;;5008850;28;20029;-73
2021/06/05 00:08:18;;;;;;;13.63;9.27;;;332.80;2329.60;;;;;;5009732;28;20054;-73
2021/06/05 00:10:55;;;;;;;13.40;9.05;;;308.00;2304.00;;;;;;5009671;28;20082;-71
2021/06/05 00:13:36;;;;;;;13.20;9.10;;;308.10;2304.00;;;;;;5009943;28;20033;-72
2021/06/05 00:16:04;;;;;;;14.93;9.43;;;308.10;2304.00;;;;;;5009713;28;20459;-72
2021/06/05 00:18:31;;;;;;;12.73;9.10;;;308.00;2304.00;;;;;;5009850;28;20052;-72
2021/06/05 00:20:58;;;;;;;11.55;9.32;;;307.90;2304.00;;;;;;5009650;28;20075;-72
2021/06/05 00:23:25;;;;;;;11.02;9.02;;;307.80;2304.00;;;;;;5009451;28;20030;-72
2021/06/05 00:25:54;;;;;;;16.20;11.35;;;307.80;2304.00;;;;;;5009594;28;20014;-73
2021/06/05 00:28:20;;;;;;;19.60;13.90;;;307.60;2304.00;;;;;;5009531;28;20360;-73
2021/06/05 00:30:46;;;;;;;17.52;12.20;;;307.60;2304.00;;;;;;5012986;28;20022;-73
2021/06/05 00:33:12;;;;;;;18.10;12.02;;;307.40;2304.00;;;;;;5012808;28;20513;-72
2021/06/05 00:35:39;;;;;;;18.98;12.45;;;307.30;2304.00;;;;;;5012906;28;20026;-73
2021/06/05 00:38:07;;;;;;;17.90;11.52;;;307.20;2304.00;;;;;;5012861;28;20030;-73
2021/06/05 00:40:38;;;;;;;16.55;11.13;;;307.30;2304.00;;;;;;5012462;28;20545;-76
2021/06/05 00:43:05;;;;;;;16.40;11.23;;;307.30;2304.00;;;;;;5012725;28;20071;-76
2021/06/05 00:45:33;;;;;;;15.32;10.93;;;307.40;2304.00;;;;;;5012653;28;20030;-73
2021/06/05 00:47:59;;;;;;;17.67;11.02;;;307.40;2304.00;;;;;;5012970;28;20065;-74
2021/06/05 00:50:27;;;;;;;15.38;10.00;;;307.40;2304.00;;;;;;5012776;28;20057;-73
2021/06/05 00:52:54;;;;;;;14.82;9.90;;;307.40;2304.00;;;;;;5012704;28;20022;-74
2021/06/05 00:55:23;;;;;;;13.10;9.90;;;307.40;2304.00;;;;;;5012375;28;20057;-73
2021/06/05 00:57:49;;;;;;;12.48;9.52;;;307.40;2304.00;;;;;;5011356;28;20049;-74
2021/06/05 01:00:39;;;;;;;12.35;9.40;;;307.30;2304.00;;;;;;5012513;28;20069;-74
2021/06/05 01:03:06;;;;;;;12.38;9.05;;;307.30;2304.00;;;;;;5000685;28;20037;-72
2021/06/05 01:05:34;;;;;;;12.60;9.15;;;307.20;2304.00;;;;;;5012304;28;20022;-72
2021/06/05 01:08:15;;;;;;;12.10;8.93;;;307.20;2304.00;;;;;;5012502;28;20018;-76
2021/06/05 01:10:42;;;;;;;12.98;8.95;;;307.20;2304.00;;;;;;5010984;28;20030;-72
2021/06/05 01:13:12;;;;;;;12.60;9.20;;;307.20;2304.00;;;;;;5012067;28;20067;-72
2021/06/05 01:15:46;;;;;;;13.23;8.88;;;282.50;2278.40;;;;;;5012351;28;20053;-74
2021/06/05 01:18:29;;;;;;;11.43;9.07;;;282.40;2278.40;;;;;;5012086;28;20537;-72
2021/06/05 01:21:12;;;;;;;11.88;8.32;;;282.50;2278.40;;;;;;5012187;28;20030;-72
2021/06/05 01:24:06;;;;;;;11.73;8.48;;;282.50;2278.40;;;;;;5000548;28;20379;-74
2021/06/05 01:26:39;;;;;;;13.45;9.10;;;282.50;2278.40;;;;;;5012033;28;20014;-73
2021/06/05 01:29:13;;;;;;;10.75;8.75;;;282.40;2278.40;;;;;;5010910;28;20033;-74
2021/06/05 01:31:43;;;;;;;11.02;9.00;;;282.40;2278.40;;;;;;5011960;28;20053;-72
2021/06/05 01:34:09;;;;;;;11.23;8.87;;;282.40;2278.40;;;;;;5011984;28;20050;-72
2021/06/05 01:36:41;;;;;;;12.80;9.02;;;282.40;2278.40;;;;;;5011882;28;20041;-73
2021/06/05 01:39:09;;;;;;;13.55;9.52;;;282.40;2278.40;;;;;;5011662;28;20118;-74
2021/06/05 01:41:38;;;;;;;14.48;9.23;;;282.30;2278.40;;;;;;5011494;28;20030;-74
2021/06/05 01:44:06;;;;;;;12.90;9.43;;;282.30;2278.40;;;;;;5011864;28;20442;-77
2021/06/05 01:46:35;;;;;;;12.88;9.52;;;282.30;2278.40;;;;;;5011670;28;20033;-76
2021/06/05 01:49:01;;;;;;;15.65;9.50;;;282.30;2278.40;;;;;;5011838;28;20044;-78
2021/06/05 01:51:27;;;;;;;13.30;10.18;;;282.20;2278.40;;;;;;5011812;28;20476;-74
2021/06/05 01:53:58;;;;;;;15.77;11.02;;;282.30;2278.40;;;;;;5011603;28;20029;-76
2021/06/05 01:56:26;;;;;;;13.85;9.75;;;282.10;2278.40;;;;;;5011689;28;20105;-76
2021/06/05 01:58:53;;;;;;;13.10;9.13;;;282.00;2278.40;;;;;;5011601;28;20033;-75
2021/06/05 02:01:18;;;;;;;15.35;9.15;;;282.00;2278.40;;;;;;5011549;28;20030;-74
2021/06/05 02:03:44;;;;;;;14.93;9.18;;;282.00;2278.40;;;;;;5011500;28;20171;-73
2021/06/05 02:06:10;;;;;;;14.48;9.07;;;282.10;2278.40;;;;;;5012000;28;20125;-72
2021/06/05 02:08:36;;;;;;;12.80;9.05;;;282.10;2278.40;;;;;;5011473;28;20101;-73
2021/06/05 02:11:10;;;;;;;16.13;9.45;;;282.10;2278.40;;;;;;5011526;28;20026;-75
2021/06/05 02:13:50;;;;;;;13.40;9.38;;;282.10;2278.40;;;;;;5011510;28;20030;-74
2021/06/05 02:16:23;;;;;;;13.57;9.20;;;282.10;2278.40;;;;;;5011499;28;20025;-77
2021/06/05 02:18:56;;;;;;;12.32;9.52;;;282.10;2278.40;;;;;;5011481;28;20550;-77
2021/06/05 02:21:24;;;;;;;15.15;9.10;;;282.20;2278.40;;;;;;5011015;28;20026;-73
2021/06/05 02:23:53;;;;;;;12.82;9.27;;;282.20;2278.40;;;;;;5011375;28;20026;-72
2021/06/05 02:26:21;;;;;;;12.57;9.27;;;282.20;2278.40;;;;;;5011220;28;20111;-73
2021/06/05 02:28:52;;;;;;;11.65;7.75;;;282.20;2278.40;;;;;;5011274;28;20553;-72
2021/06/05 02:31:18;;;;;;;12.13;8.27;;;282.20;2278.40;;;;;;5011116;28;20075;-72
2021/06/05 02:33:45;;;;;;;12.52;8.38;;;282.30;2278.40;;;;;;5011140;28;20040;-73
2021/06/05 02:36:13;;;;;;;11.32;8.88;;;282.30;2278.40;;;;;;5011018;28;20079;-73
2021/06/05 02:38:46;;;;;;;12.18;8.38;;;282.20;2278.40;;;;;;5010916;28;20022;-76
2021/06/05 02:41:14;;;;;;;11.52;8.30;;;282.20;2278.40;;;;;;5010978;28;20022;-74
2021/06/05 02:43:42;;;;;;;14.27;8.60;;;282.10;2278.40;;;;;;5010665;28;20061;-72
2021/06/05 02:46:15;;;;;;;14.68;9.13;;;282.10;2278.40;;;;;;5010944;28;20043;-72
2021/06/05 02:48:51;;;;;;;16.27;10.48;;;282.00;2278.40;;;;;;5010837;28;20026;-73
2021/06/05 02:51:21;;;;;;;14.43;9.32;;;281.90;2278.40;;;;;;5010052;28;20079;-74
2021/06/05 02:53:47;;;;;;;13.77;9.07;;;281.60;2278.40;;;;;;5010768;28;20087;-73
2021/06/05 02:56:14;;;;;;;14.25;8.50;;;281.60;2278.40;;;;;;5009664;28;20048;-72
2021/06/05 02:58:40;;;;;;;13.18;7.78;;;281.60;2278.40;;;;;;5010655;28;20071;-71
2021/06/05 03:01:11;;;;;;;10.45;7.80;;;281.70;2278.40;;;;;;5010572;28;20076;-71
2021/06/05 03:03:37;;;;;;;12.25;7.43;;;281.60;2278.40;;;;;;5010488;28;20026;-75
2021/06/05 03:06:04;;;;;;;11.07;7.90;;;281.60;2278.40;;;;;;5009424;28;20365;-76
2021/06/05 03:08:33;;;;;;;11.48;8.07;;;256.90;2252.80;;;;;;5010710;28;20022;-73
2021/06/05 03:11:00;;;;;;;11.38;8.23;;;256.80;2252.80;;;;;;5010311;28;20021;-72
2021/06/05 03:13:26;;;;;;;13.35;10.05;;;256.50;2252.80;;;;;;5010437;28;20488;-74
2021/06/05 03:15:53;;;;;;;11.68;9.07;;;256.50;2252.80;;;;;;5009148;28;20037;-69
2021/06/05 03:18:22;;;;;;;12.98;8.60;;;256.40;2252.80;;;;;;5010364;28;20545;-75
2021/06/05 03:20:50;;;;;;;11.18;8.40;;;256.30;2252.80;;;;;;5010260;28;20030;-71
2021/06/05 03:23:19;;;;;;;12.30;8.88;;;256.40;2252.80;;;;;;5010277;28;20018;-71
2021/06/05 03:25:48;;;;;;;12.82;8.55;;;256.50;2252.80;;;;;;5010413;28;20075;-72
2021/06/05 03:28:16;;;;;;;12.50;8.32;;;256.60;2252.80;;;;;;5010220;28;20022;-74
2021/06/05 03:30:42;;;;;;;14.07;9.05;;;256.80;2252.80;;;;;;5010326;28;20034;-77
2021/06/05 03:33:08;;;;;;;11.15;8.18;;;256.90;2252.80;;;;;;5008748;28;20474;-79
2021/06/05 03:35:35;;;;;;;20.08;11.90;;;281.60;2278.40;;;;;;5010266;28;20096;-74
2021/06/05 03:38:00;;;;;;;11.70;8.82;;;281.70;2278.40;;;;;;5010047;28;20036;-80
2021/06/05 03:40:30;;;;;;;14.55;11.20;;;281.90;2278.40;;;;;;5010048;28;20808;-82
2021/06/05 03:42:56;;;;;;;11.25;9.27;;;281.90;2278.40;;;;;;5009961;28;20515;-72
2021/06/05 03:45:23;;;;;;;15.18;9.73;;;281.90;2278.40;;;;;;5010071;28;20389;-74
2021/06/05 03:47:49;;;;;;;14.85;10.75;;;282.00;2278.40;;;;;;5009948;28;20018;-74
2021/06/05 03:50:18;;;;;;;13.13;9.98;;;282.00;2278.40;;;;;;5009936;28;20018;-76
2021/06/05 03:52:44;;;;;;;12.10;9.90;;;282.20;2278.40;;;;;;5010062;28;20033;-72
2021/06/05 03:55:12;;;;;;;12.77;8.77;;;282.30;2278.40;;;;;;5009841;28;20087;-73
2021/06/05 03:57:38;;;;;;;10.18;8.05;;;282.20;2278.40;;;;;;5010166;28;20022;-73
2021/06/05 04:00:16;;;;;;;10.07;7.75;;;282.20;2278.40;;;;;;5010143;28;20026;-70
2021/06/05 04:02:42;;;;;;;11.00;7.38;;;282.20;2278.40;;;;;;5011580;28;20046;-75
2021/06/05 04:05:10;;;;;;;10.18;7.38;;;282.30;2278.40;;;;;;5016458;28;20070;-73
2021/06/05 04:07:36;;;;;;;10.63;7.20;;;282.30;2278.40;;;;;;5015194;28;20101;-73
2021/06/05 04:10:04;;;;;;;9.32;6.93;;;282.40;2278.40;;;;;;5016293;28;20060;-72
2021/06/05 04:12:30;;;;;;;8.95;6.93;;;282.50;2278.40;;;;;;5016143;28;20125;-74
2021/06/05 04:14:56;;;;;;;11.85;6.75;;;282.50;2278.40;;;;;;5016315;28;20104;-75
2021/06/05 04:17:22;;;;;;;9.52;7.22;;;307.20;2304.00;;;;;;5016294;28;20171;-74
2021/06/05 04:19:48;;;;;;;10.43;7.10;;;307.30;2304.00;;;;;;5016285;28;20026;-74
2021/06/05 04:22:14;;;;;;;8.43;7.03;;;307.40;2304.00;;;;;;5016186;28;20395;-74
2021/06/05 04:24:39;;;;;;;10.13;7.10;;;307.50;2304.00;;;;;;5016005;28;20030;-74
2021/06/05 04:27:07;;;;;;;9.07;6.85;;;307.60;2304.00;;;;;;5016246;28;20057;-74
2021/06/05 04:29:34;;;;;;;10.43;6.78;;;307.70;2304.00;;;;;;5016051;28;20109;-74
2021/06/05 04:32:00;;;;;;;8.57;6.63;;;307.70;2304.00;;;;;;5016141;28;20029;-77
2021/06/05 04:34:26;;;;;;;9.70;6.80;;;307.70;2304.00;;;;;;5016043;28;20036;-78
2021/06/05 04:36:53;;;;;;;9.45;7.07;;;307.80;2304.00;;;;;;5015916;28;20022;-75
2021/06/05 04:39:19;;;;;;;8.75;6.47;;;308.00;2304.00;;;;;;5015921;28;20065;-74
2021/06/05 04:41:45;;;;;;;8.07;6.43;;;308.10;2304.00;;;;;;5015832;28;20364;-75
2021/06/05 04:44:11;;;;;;;9.68;6.70;;;332.90;2329.60;;;;;;5015756;28;20083;-73
2021/06/05 04:46:38;;;;;;;7.82;6.53;;;333.00;2329.60;;;;;;5015971;28;20022;-72
2021/06/05 04:49:05;;;;;;;10.57;7.07;;;333.10;2329.60;;;;;;5015980;28;20018;-71
2021/06/05 04:51:31;;;;;;;9.63;7.10;;;333.30;2329.60;;;;;;5015992;28;20026;-73
2021/06/05 04:53:57;;;;;;;9.25;7.22;;;333.50;2329.60;;;;;;5014396;28;20030;-71
2021/06/05 04:56:37;;;;;;;9.98;7.07;;;333.60;2329.60;;;;;;5015754;28;20332;-72
2021/06/05 04:59:03;;;;;;;9.88;7.25;;;358.40;2329.60;;;;;;5015557;28;20018;-72
2021/06/05 05:01:29;;;;;;;8.77;7.38;;;358.60;2329.60;;;;;;5015621;28;20034;-72
2021/06/05 05:03:55;;;;;;;10.77;7.25;;;358.80;2329.60;;;;;;5015707;28;20433;-72
2021/06/05 05:06:20;;;;;;;10.43;7.38;;;359.00;2329.60;;;;;;5015956;28;20071;-72
2021/06/05 05:08:46;;;;;;;11.02;7.05;;;359.10;2329.60;;;;;;5015429;28;20415;-72
2021/06/05 05:11:12;;;;;;;9.15;7.13;;;359.30;2329.60;;;;;;5015678;28;20022;-72
2021/06/05 05:13:38;;;;;;;10.13;7.20;;;359.20;2329.60;;;;;;5015683;28;20038;-75
2021/06/05 05:16:05;;;;;;;8.88;6.38;;;359.30;2329.60;;;;;;5011424;28;20030;-74
2021/06/05 05:18:32;;;;;;;8.43;6.80;;;384.10;2329.60;;;;;;5012380;28;20039;-76
2021/06/05 05:21:00;;;;;;;9.82;6.60;;;384.30;2329.60;;;;;;5010803;28;20022;-75
2021/06/05 05:23:27;;;;;;;9.68;6.80;;;384.60;2329.60;;;;;;5012298;28;20097;-75
2021/06/05 05:25:54;;;;;;;9.52;6.65;;;384.70;2329.60;;;;;;5012204;28;20025;-73
2021/06/05 05:28:20;;;;;;;10.60;6.68;;;384.90;2329.60;;;;;;5011988;28;20449;-75
2021/06/05 05:30:53;;;;;;;9.10;6.55;;;384.90;2329.60;;;;;;5012137;28;20105;-73
2021/06/05 05:33:21;;;;;;;12.15;7.07;;;384.80;2329.60;;;;;;5012166;28;20018;-75
2021/06/05 05:35:47;;;;;;;9.68;6.72;;;409.60;2355.20;;;;;;5010869;28;20026;-75
2021/06/05 05:38:14;;;;;;;9.55;6.30;;;409.60;2355.20;;;;;;5011683;28;20539;-75
2021/06/05 05:40:41;;;;;;;8.80;6.60;;;409.70;2355.20;;;;;;5011906;28;20127;-77
2021/06/05 05:43:07;;;;;;;9.07;6.85;;;409.80;2355.20;;;;;;5011937;28;20486;-74
2021/06/05 05:45:33;;;;;;;9.63;7.00;;;410.00;2355.20;;;;;;5011840;28;20491;-74
2021/06/05 05:48:02;;;;;;;11.57;7.75;;;410.10;2355.20;;;;;;5011772;28;20018;-74
2021/06/05 05:50:30;;;;;;;11.45;6.80;;;410.40;2355.20;;;;;;5011557;28;20014;-76
2021/06/05 05:52:56;;;;;;;9.93;6.93;;;410.50;2355.20;;;;;;5010491;28;20025;-73
2021/06/05 05:55:23;;;;;;;11.05;7.32;;;435.30;2355.20;;;;;;5011490;28;20092;-76
2021/06/05 05:57:49;;;;;;;9.02;6.40;;;435.30;2355.20;;;;;;5011803;28;20034;-74
2021/06/05 06:00:23;;;;;;;8.85;6.90;;;435.50;2355.20;;;;;;5011499;28;20058;-79
2021/06/05 06:02:48;;;;;;;9.13;6.15;;;435.70;2355.20;;;;;;5010426;28;20022;-75
2021/06/05 06:05:14;;;;;;;9.90;6.00;;;436.00;2355.20;;;;;;5011437;28;20513;-77
2021/06/05 06:07:41;;;;;;;9.32;6.40;;;460.80;2380.80;;;;;;5011581;28;20048;-75
2021/06/05 06:10:09;;;;;;;13.98;8.05;;;460.80;2380.80;;;;;;5010578;28;20141;-79
2021/06/05 06:12:36;;;;;;;19.88;12.32;;;461.10;2380.80;;;;;;5011666;28;20034;-75
2021/06/05 06:15:05;;;;;;;8.60;6.38;;;461.40;2380.80;;;;;;5011621;28;20112;-73
2021/06/05 06:17:31;;;;;;;11.70;9.55;;;461.40;2380.80;;;;;;5011539;28;20104;-72
2021/06/05 06:19:57;;;;;;;7.00;6.25;;;461.70;2380.80;;;;;;5011382;28;20494;-73
2021/06/05 06:22:22;;;;;;;11.13;7.25;;;461.50;2380.80;;;;;;5011205;28;20030;-76
2021/06/05 06:24:48;;;;;;;10.85;7.40;;;486.40;2380.80;;;;;;5009644;28;20037;-74
2021/06/05 06:27:14;;;;;;;11.57;7.78;;;486.40;2380.80;;;;;;5010074;28;20392;-76
2021/06/05 06:29:40;;;;;;;10.07;7.03;;;486.70;2380.80;;;;;;5011117;28;20071;-73
2021/06/05 06:32:07;;;;;;;17.27;11.02;;;486.80;2380.80;;;;;;5011385;28;20030;-75
2021/06/05 06:34:34;;;;;;;13.65;9.50;;;487.10;2380.80;;;;;;5011121;28;20026;-75
2021/06/05 06:37:02;;;;;;;14.35;8.93;;;487.10;2380.80;;;;;;5009905;28;20400;-77
2021/06/05 06:39:29;;;;;;;11.50;7.07;;;487.30;2380.80;;;;;;5010967;28;20492;-74
2021/06/05 06:41:56;;;;;;;9.32;6.90;;;487.30;2380.80;;;;;;5010848;28;20030;-77
2021/06/05 06:44:22;;;;;;;8.88;7.03;;;512.20;2380.80;;;;;;5010919;28;20065;-75
2021/06/05 06:46:49;;;;;;;8.30;6.45;;;512.60;2380.80;;;;;;5010759;28;20025;-75
2021/06/05 06:49:18;;;;;;;7.95;6.30;;;512.40;2380.80;;;;;;5010964;28;20033;-73
2021/06/05 06:51:44;;;;;;;8.35;6.40;;;512.50;2380.80;;;;;;5010640;28;20100;-75
2021/06/05 06:54:11;;;;;;;7.93;6.60;;;512.40;2380.80;;;;;;5010690;28;20022;-74
2021/06/05 06:56:37;;;;;;;13.05;9.85;;;512.20;2380.80;;;;;;5010736;28;20014;-73
2021/06/05 06:59:05;;;;;;;11.13;8.77;;;512.70;2380.80;;;;;;5009955;28;20022;-74
2021/06/05 07:01:31;;;;;;;8.82;7.32;;;537.60;2406.40;;;;;;5010203;28;20069;-76
2021/06/05 07:03:57;;;;;;;8.00;5.70;;;537.70;2406.40;;;;;;5010276;28;20029;-72
2021/06/05 07:06:25;;;;;;;7.53;5.88;;;537.80;2406.40;;;;;;5010027;28;20018;-72
2021/06/05 07:08:52;;;;;;;8.93;5.60;;;537.60;2406.40;;;;;;5009619;28;20057;-72
2021/06/05 07:11:27;;;;;;;8.45;5.60;;;537.70;2406.40;;;;;;5009649;28;20561;-77
2021/06/05 07:13:53;;;;;;;8.02;5.65;;;538.00;2406.40;;;;;;5009968;28;20030;-77
2021/06/05 07:16:19;;;;;;;9.38;6.20;;;538.00;2406.40;;;;;;5008821;28;20029;-76
2021/06/05 07:18:45;;;;;;;7.68;5.90;;;538.20;2406.40;;;;;;5009746;28;20522;-77
2021/06/05 07:21:12;;;;;;;10.48;6.72;;;537.90;2406.40;;;;;;5009591;28;20072;-76
2021/06/05 07:23:39;;;;;;;7.32;6.28;;;538.20;2406.40;;;;;;5009570;28;20480;-75
2021/06/05 07:26:10;;;;;;;8.90;6.15;;;538.00;2406.40;;;;;;5009597;28;20098;-76
2021/06/05 07:28:40;;;;;;;8.05;5.88;;;538.00;2406.40;;;;;;5009394;28;20030;-77
2021/06/05 07:31:07;;;;;;;10.32;5.88;;;538.30;2406.40;;;;;;5009599;28;20537;-72
2021/06/05 07:33:33;;;;;;;10.50;6.25;;;563.20;2432.00;;;;;;5009359;28;20103;-72
2021/06/05 07:36:00;;;;;;;7.82;5.80;;;538.50;2406.40;;;;;;5009554;28;20022;-77
2021/06/05 07:38:27;;;;;;;9.18;6.13;;;538.20;2406.40;;;;;;5008406;28;20034;-73
2021/06/05 07:40:55;;;;;;;8.25;5.45;;;563.30;2432.00;;;;;;5009410;28;20026;-81
2021/06/05 07:43:24;;;;;;;9.15;5.82;;;563.40;2432.00;;;;;;5009133;28;20112;-77
2021/06/05 07:45:51;;;;;;;8.70;5.82;;;563.60;2432.00;;;;;;5009472;28;20037;-79
2021/06/05 07:48:17;;;;;;;7.47;5.82;;;564.10;2432.00;;;;;;5009149;28;20046;-82
2021/06/05 07:50:44;;;;;;;8.93;5.75;;;588.90;2432.00;;;;;;5010828;28;20489;-74
2021/06/05 07:53:09;;;;;;;9.05;6.45;;;589.00;2432.00;;;;;;5009579;28;20022;-74
2021/06/05 07:55:35;;;;;;;8.07;5.57;;;588.90;2432.00;;;;;;5009394;28;20109;-73
2021/06/05 07:58:02;;;;;;;10.75;5.50;;;564.10;2432.00;;;;;;5009760;28;20041;-73
2021/06/05 08:00:32;;;;;;;8.43;5.43;;;589.10;2432.00;;;;;;5009470;28;20045;-72
2021/06/05 08:02:58;;;;;;;;;;;589.60;2432.00;;;;;;5010370;28;20075;-75
2021/06/05 08:05:24;;;;;;;7.97;5.20;;;589.10;2432.00;;;;;;5009715;28;19913;-74
2021/06/05 08:07:51;;;;;;;8.90;5.68;;;589.00;2432.00;;;;;;5009628;28;20507;-74
2021/06/05 08:10:20;;;;;;;9.73;5.10;;;589.20;2432.00;;;;;;5009669;28;20063;-74
2021/06/05 08:12:46;;;;;;;7.43;5.45;;;589.70;2432.00;;;;;;5009820;28;20033;-75
2021/06/05 08:15:17;;;;;;;8.65;5.15;;;589.40;2432.00;;;;;;5009698;28;20025;-76
2021/06/05 08:17:43;;;;;;;9.32;5.05;;;589.30;2432.00;;;;;;5009574;28;20029;-79
2021/06/05 08:20:14;;;;;;;8.00;5.20;;;589.70;2432.00;;;;;;5009587;28;20030;-76
2021/06/05 08:22:40;;;;;;;6.30;4.75;;;614.70;2432.00;;;;;;5008808;28;20377;-73
2021/06/05 08:25:08;;;;;;;6.75;5.60;;;614.70;2432.00;;;;;;5009030;28;20029;-77
2021/06/05 08:27:34;;;;;;;7.50;4.97;;;614.50;2432.00;;;;;;5008845;28;20014;-77
2021/06/05 08:30:00;;;;;;;6.78;4.90;;;614.70;2432.00;;;;;;5008580;28;20033;-76
2021/06/05 08:32:26;;;;;;;6.63;4.80;;;614.70;2432.00;;;;;;5008577;28;20030;-78
2021/06/05 08:34:52;;;;;;;7.50;5.30;;;614.90;2432.00;;;;;;5008977;28;20396;-82
2021/06/05 08:37:18;;;;;;;7.82;5.57;;;615.20;2432.00;;;;;;5009208;28;20030;-75
2021/06/05 08:39:44;;;;;;;8.68;5.13;;;640.00;2432.00;;;;;;5009099;28;20033;-77
2021/06/05 08:42:18;;;;;;;7.80;5.00;;;640.10;2432.00;;;;;;5008792;28;20025;-77
2021/06/05 08:44:57;;;;;;;6.88;4.72;;;640.20;2432.00;;;;;;5008886;28;20053;-75
2021/06/05 08:47:35;;;;;;;10.48;4.85;;;640.50;2432.00;;;;;;5001738;28;20138;-75
2021/06/05 08:50:11;;;;;;;7.57;4.32;;;665.60;2432.00;;;;;;5009606;28;20094;-74
2021/06/05 08:52:42;;;;;;;6.22;4.50;;;665.60;2355.20;;;;;;5012552;28;20415;-78
2021/06/05 08:55:45;;;;;;;8.73;3.95;;;640.90;2329.60;;;;;;5012318;28;20033;-80
2021/06/05 08:58:29;;;;;;;6.38;4.10;;;665.90;2227.20;;;;;;5030469;28;20061;-79
2021/06/05 09:01:13;;;;;;;6.80;4.38;;;665.70;2201.60;;;;;;4998695;28;20656;-75
2021/06/05 09:03:41;;;;;;;7.05;3.95;;;666.20;2201.60;;;;;;5011304;28;20018;-73
2021/06/05 09:06:29;;;;;;;5.97;4.18;;;666.50;2227.20;;;;;;5012308;28;20104;-76
2021/06/05 09:08:55;;;;;;;7.70;4.10;;;666.50;2201.60;;;;;;5010410;28;20079;-79
2021/06/05 09:11:21;;;;;;;8.05;3.95;;;691.20;2150.40;;;;;;5010846;28;20116;-77
2021/06/05 09:13:47;;;;;;;6.75;4.03;;;691.30;2048.00;;;;;;5011962;28;20022;-77
2021/06/05 09:16:18;;;;;;;5.65;3.92;;;691.40;2048.00;;;;;;5011873;28;20022;-78
2021/06/05 09:18:56;;;;;;;5.68;3.50;;;666.50;1971.20;;;;;;5012254;28;20361;-77
2021/06/05 09:21:33;;;;;;;4.75;3.38;;;666.30;1920.00;;;;;;5011988;28;20018;-76
2021/06/05 09:24:20;;;;;;;5.05;3.38;;;666.20;1971.20;;;;;;5010799;28;20030;-77
2021/06/05 09:27:08;;;;;;;6.57;3.53;;;691.20;1971.20;;;;;;5011840;28;20030;-76
2021/06/05 09:29:56;;;;;;;5.15;2.90;;;666.40;1920.00;;;;;;5008222;28;20038;-80
2021/06/05 09:32:34;;;;;;;4.68;3.15;;;666.40;1740.80;;;;;;5010735;28;20082;-74
2021/06/05 09:35:06;;;;;;;4.07;2.70;;;691.40;1740.80;;;;;;5011634;28;20555;-76
2021/06/05 09:37:42;;;;;;;4.10;2.50;;;691.40;1612.80;;;;;;5011889;28;20121;-75
2021/06/05 09:40:13;;;;;;;4.35;2.80;;;691.60;1612.80;;;;;;5011611;28;20030;-76
2021/06/05 09:42:42;;;;;;;5.55;2.80;;;691.70;1561.60;;;;;;5011768;28;20026;-72
2021/06/05 09:45:32;;;;;;;9.05;5.22;;;692.00;1561.60;;;;;;5011567;28;20038;-74
2021/06/05 09:48:17;;;;;;;6.25;3.33;;;692.10;1561.60;;;;;;5011535;28;20030;-75
2021/06/05 09:50:46;;;;;;;4.43;2.85;;;716.90;1587.20;;;;;;5001496;28;20186;-74
2021/06/05 09:53:28;;;;;;;6.90;3.15;;;717.10;1536.00;;;;;;5011711;28;20068;-78
2021/06/05 09:55:55;;;;;;;6.72;2.97;;;716.80;1561.60;;;;;;5007946;28;20488;-78
2021/06/05 09:58:35;;;;;;;6.78;3.00;;;716.90;1587.20;;;;;;5011470;28;20487;-78
2021/06/05 10:01:21;;;;;;;5.05;3.00;;;717.10;1587.20;;;;;;5007824;28;20030;-74
2021/06/05 10:03:53;;;;;;;5.20;3.00;;;717.20;1587.20;;;;;;5011139;28;20038;-77
2021/06/05 10:06:25;;;;;;;4.88;3.10;;;717.20;1561.60;;;;;;5011594;28;20028;-76
2021/06/05 10:08:51;;;;;;;5.85;3.10;;;717.20;1561.60;;;;;;5011025;28;20030;-76
2021/06/05 10:11:31;;;;;;;8.65;3.92;;;717.20;1536.00;;;;;;5011139;28;20090;-74
2021/06/05 10:13:58;;;;;;;11.15;3.88;;;717.30;1510.40;;;;;;5011272;28;20018;-74
2021/06/05 10:16:25;;;;;;;5.75;3.22;;;717.30;1561.60;;;;;;5010951;28;20101;-79
2021/06/05 10:19:20;;;;;;;5.88;3.05;;;717.30;1510.40;;;;;;5011375;28;20472;-81
2021/06/05 10:21:48;;;;;;;8.73;3.30;;;716.80;1510.40;;;;;;4975599;28;20233;-79
2021/06/05 10:24:23;;;;;;;5.32;3.05;;;717.10;1510.40;;;;;;5011118;28;20506;-76
2021/06/05 10:26:51;;;;;;;16.05;4.00;;;691.80;1510.40;;;;;;5010947;28;20030;-77
2021/06/05 10:29:34;;;;;;;19.15;4.13;;;716.80;1536.00;;;;;;5011081;28;20026;-76
2021/06/05 10:32:05;;;;;;;9.27;3.40;;;717.00;1510.40;;;;;;5011083;28;20384;-74
2021/06/05 10:34:48;;;;;;;10.00;3.13;;;717.20;1510.40;;;;;;5011073;28;20381;-74
2021/06/05 10:37:27;;;;;;;10.13;3.40;;;717.40;1510.40;;;;;;4999342;28;20071;-74
2021/06/05 10:39:54;;;;;;;10.10;3.90;;;717.10;1484.80;;;;;;5010908;28;20026;-75
2021/06/05 10:42:23;;;;;;;6.82;3.03;;;716.90;1484.80;;;;;;5010639;28;20487;-74
2021/06/05 10:44:49;;;;;;;9.35;3.50;;;716.90;1510.40;;;;;;5010130;28;20057;-72
2021/06/05 10:47:20;;;;;;;7.88;3.50;;;717.20;1536.00;;;;;;5010242;28;20021;-74
2021/06/05 10:49:51;;;;;;;7.22;3.15;;;717.40;1536.00;;;;;;5009741;28;20038;-75
2021/06/05 10:52:34;;;;;;;7.78;3.58;;;717.50;1510.40;;;;;;5009004;28;20032;-82
2021/06/05 10:55:14;;;;;;;7.53;3.50;;;717.40;1536.00;;;;;;5009927;28;20045;-77
2021/06/05 10:57:48;;;;;;;7.75;3.40;;;717.50;1510.40;;;;;;5008249;28;20395;-77
2021/06/05 11:00:41;;;;;;;5.65;3.40;;;717.70;1484.80;;;;;;5009929;28;20025;-79
2021/06/05 11:03:08;;;;;;;8.57;4.32;;;717.60;1484.80;;;;;;5010714;28;20032;-73
2021/06/05 11:05:35;;;;;;;6.47;3.28;;;717.40;1459.20;;;;;;5009853;28;20022;-77
2021/06/05 11:08:14;;;;;;;7.85;3.35;;;717.40;1484.80;;;;;;5010816;28;20437;-80
2021/06/05 11:11:01;;;;;;;7.53;3.10;;;717.40;1510.40;;;;;;5010271;28;20061;-75
2021/06/05 11:13:32;;;;;;;7.78;3.67;;;717.10;1459.20;;;;;;5004814;28;20097;-73
2021/06/05 11:16:06;;;;;;;7.93;3.30;;;716.80;1484.80;;;;;;5008898;28;20559;-74
2021/06/05 11:18:39;;;;;;;4.40;3.33;;;692.00;1484.80;;;;;;5010388;28;20428;-75
2021/06/05 11:21:39;;;;;;;6.70;3.13;;;691.90;1510.40;;;;;;5010214;28;20018;-73
2021/06/05 11:24:10;;;;;;;4.18;3.03;;;691.80;1459.20;;;;;;5034516;28;20030;-74
2021/06/05 11:26:39;;;;;;;5.10;3.13;;;692.00;1459.20;;;;;;5009845;28;20022;-73
2021/06/05 11:29:20;;;;;;;6.45;2.90;;;691.90;1459.20;;;;;;5010140;28;20029;-76
2021/06/05 11:32:17;;;;;;;5.18;3.17;;;716.80;1459.20;;;;;;5009854;28;20030;-73
2021/06/05 11:34:43;;;;;;;6.28;3.05;;;716.90;1459.20;;;;;;5005426;28;20387;-76
2021/06/05 11:37:15;;;;;;;8.10;3.03;;;692.10;1433.60;;;;;;5009882;28;20026;-73
2021/06/05 11:39:44;;;;;;;6.15;2.92;;;717.00;1459.20;;;;;;5009121;28;20075;-72
2021/06/05 11:42:19;;;;;;;6.22;3.10;;;717.10;1433.60;;;;;;5006691;28;20022;-74
2021/06/05 11:45:25;;;;;;;5.18;3.10;;;717.20;1433.60;;;;;;5008952;28;20050;-74
2021/06/05 11:47:54;;;;;;;6.13;3.05;;;717.40;1459.20;;;;;;5001299;28;20026;-74
2021/06/05 11:50:32;;;;;;;5.00;3.70;;;717.50;1433.60;;;;;;5009774;28;20057;-75
2021/06/05 11:53:29;;;;;;;7.15;2.90;;;717.60;1433.60;;;;;;5009186;28;20026;-77
2021/06/05 11:56:07;;;;;;;6.07;2.80;;;717.70;1433.60;;;;;;5007589;28;20033;-76
2021/06/05 11:58:35;;;;;;;6.95;3.13;;;742.40;1459.20;;;;;;5007198;28;20091;-74
2021/06/05 12:01:14;;;;;;;4.70;2.90;;;742.50;1433.60;;;;;;5006826;28;20037;-77
2021/06/05 12:04:04;;;;;;;5.75;3.00;;;742.40;1408.00;;;;;;5009512;28;20030;-75
2021/06/05 12:06:33;;;;;;;4.90;2.50;;;742.40;1382.40;;;;;;5008283;28;20022;-78
2021/06/05 12:09:07;;;;;;;4.47;2.80;;;717.70;1280.00;;;;;;5008255;28;20033;-74
2021/06/05 12:11:45;;;;;;;6.95;3.05;;;717.60;1331.20;;;;;;5007844;28;20096;-74
2021/06/05 12:17:27;;;;;;;5.88;3.97;;;717.50;1254.40;;;;;;5005569;28;20026;-75
2021/06/05 12:19:53;;;;;;;5.93;3.00;;;717.70;1356.80;;;;;;5009553;28;20022;-76
2021/06/05 12:22:27;;;;;;;8.38;3.80;;;742.40;1382.40;;;;;;5009390;28;20026;-77
2021/06/05 12:24:54;;;;;;;4.75;3.28;;;742.40;1356.80;;;;;;5011619;28;20018;-75
2021/06/05 12:27:36;;;;;;;3.72;2.90;;;742.40;1331.20;;;;;;5012348;28;20030;-77
2021/06/05 12:30:17;;;;;;;5.68;2.70;;;717.20;1280.00;;;;;;5013088;28;20026;-75
2021/06/05 12:33:04;;;;;;;10.43;6.45;;;716.90;1331.20;;;;;;5011276;28;20059;-76